sensor_id;sensor_type;location;lat;lon;timestamp;pressure;altitude;pressure_sealevel;temperature;humidity
35888;BME280;21990;42.540;23.496;2023-02-26T00:01:26;92407.13;;;9.65;67.50
35888;BME280;21990;42.540;23.496;2023-02-26T00:03:57;92402.91;;;9.43;68.14
35888;BME280;21990;42.540;23.496;2023-02-26T00:06:25;92398.03;;;9.44;68.09
35888;BME280;21990;42.540;23.496;2023-02-26T00:08:50;92403.81;;;9.38;68.52
35888;BME280;21990;42.540;23.496;2023-02-26T00:11:16;92394.03;;;9.32;68.83
35888;BME280;21990;42.540;23.496;2023-02-26T00:13:43;92390.63;;;9.26;68.69
35888;BME280;21990;42.540;23.496;2023-02-26T00:16:31;92384.97;;;9.18;69.15
35888;BME280;21990;42.540;23.496;2023-02-26T00:18:59;92374.63;;;9.13;70.30
35888;BME280;21990;42.540;23.496;2023-02-26T00:21:26;92381.50;;;9.04;69.86
35888;BME280;21990;42.540;23.496;2023-02-26T00:23:52;92376.41;;;9.03;70.99
35888;BME280;21990;42.540;23.496;2023-02-26T00:26:18;92383.91;;;9.00;70.24
35888;BME280;21990;42.540;23.496;2023-02-26T00:28:44;92371.56;;;9.03;70.17
35888;BME280;21990;42.540;23.496;2023-02-26T00:31:10;92375.56;;;8.87;71.50
35888;BME280;21990;42.540;23.496;2023-02-26T00:33:37;92371.97;;;8.79;71.46
35888;BME280;21990;42.540;23.496;2023-02-26T00:36:26;92383.56;;;8.83;71.44
35888;BME280;21990;42.540;23.496;2023-02-26T00:38:56;92364.31;;;8.87;71.29
35888;BME280;21990;42.540;23.496;2023-02-26T00:41:27;92376.31;;;8.88;71.27
35888;BME280;21990;42.540;23.496;2023-02-26T00:43:54;92366.66;;;8.76;71.70
35888;BME280;21990;42.540;23.496;2023-02-26T00:46:43;92354.50;;;8.52;72.87
35888;BME280;21990;42.540;23.496;2023-02-26T00:49:46;92348.22;;;8.60;72.16
35888;BME280;21990;42.540;23.496;2023-02-26T00:52:22;92354.44;;;8.66;72.43
35888;BME280;21990;42.540;23.496;2023-02-26T00:54:49;92348.94;;;8.60;72.19
35888;BME280;21990;42.540;23.496;2023-02-26T00:57:15;92340.59;;;8.68;72.00
35888;BME280;21990;42.540;23.496;2023-02-26T00:59:40;92335.06;;;8.75;71.93
35888;BME280;21990;42.540;23.496;2023-02-26T01:02:06;92335.31;;;8.64;72.48
35888;BME280;21990;42.540;23.496;2023-02-26T01:04:32;92343.97;;;8.66;72.15
35888;BME280;21990;42.540;23.496;2023-02-26T01:06:57;92346.41;;;8.70;71.78
35888;BME280;21990;42.540;23.496;2023-02-26T01:09:28;92338.41;;;8.53;72.31
35888;BME280;21990;42.540;23.496;2023-02-26T01:11:57;92341.44;;;8.55;73.17
35888;BME280;21990;42.540;23.496;2023-02-26T01:14:26;92342.59;;;8.60;72.62
35888;BME280;21990;42.540;23.496;2023-02-26T01:16:54;92329.88;;;8.58;72.34
35888;BME280;21990;42.540;23.496;2023-02-26T01:22:05;92325.84;;;8.46;73.65
35888;BME280;21990;42.540;23.496;2023-02-26T01:24:34;92318.72;;;8.45;72.40
35888;BME280;21990;42.540;23.496;2023-02-26T01:27:01;92310.50;;;8.47;72.39
35888;BME280;21990;42.540;23.496;2023-02-26T01:29:26;92306.88;;;8.39;72.37
35888;BME280;21990;42.540;23.496;2023-02-26T01:32:05;92312.50;;;8.39;73.04
35888;BME280;21990;42.540;23.496;2023-02-26T01:34:43;92296.00;;;8.36;72.96
35888;BME280;21990;42.540;23.496;2023-02-26T01:39:52;92270.06;;;8.01;73.75
35888;BME280;21990;42.540;23.496;2023-02-26T01:42:24;92276.28;;;8.07;74.70
35888;BME280;21990;42.540;23.496;2023-02-26T01:45:00;92259.41;;;8.00;73.85
35888;BME280;21990;42.540;23.496;2023-02-26T01:49:52;92256.47;;;7.85;75.19
35888;BME280;21990;42.540;23.496;2023-02-26T01:55:24;92223.06;;;7.94;74.59
35888;BME280;21990;42.540;23.496;2023-02-26T01:57:53;92253.16;;;7.94;74.59
35888;BME280;21990;42.540;23.496;2023-02-26T02:00:20;92233.88;;;7.90;74.32
35888;BME280;21990;42.540;23.496;2023-02-26T02:02:46;92235.78;;;7.95;73.64
35888;BME280;21990;42.540;23.496;2023-02-26T02:05:32;92227.84;;;7.86;74.44
35888;BME280;21990;42.540;23.496;2023-02-26T02:07:59;92238.13;;;7.84;74.42
35888;BME280;21990;42.540;23.496;2023-02-26T02:10:26;92219.78;;;7.83;73.94
35888;BME280;21990;42.540;23.496;2023-02-26T02:13:00;92241.16;;;7.86;73.92
35888;BME280;21990;42.540;23.496;2023-02-26T02:18:21;92233.66;;;7.68;74.41
35888;BME280;21990;42.540;23.496;2023-02-26T02:26:18;92235.19;;;7.69;73.92
35888;BME280;21990;42.540;23.496;2023-02-26T02:29:20;92218.16;;;7.67;73.43
35888;BME280;21990;42.540;23.496;2023-02-26T02:34:51;92229.28;;;7.59;73.47
35888;BME280;21990;42.540;23.496;2023-02-26T02:40:10;92231.84;;;7.70;73.52
35888;BME280;21990;42.540;23.496;2023-02-26T02:42:58;92224.09;;;7.63;73.14
35888;BME280;21990;42.540;23.496;2023-02-26T02:45:53;92239.63;;;7.64;72.78
35888;BME280;21990;42.540;23.496;2023-02-26T02:48:22;92241.81;;;7.58;72.74
35888;BME280;21990;42.540;23.496;2023-02-26T02:51:05;92243.56;;;7.48;73.30
35888;BME280;21990;42.540;23.496;2023-02-26T02:53:39;92246.94;;;7.46;72.97
35888;BME280;21990;42.540;23.496;2023-02-26T02:56:17;92253.88;;;7.32;73.04
35888;BME280;21990;42.540;23.496;2023-02-26T03:01:40;92236.22;;;7.24;72.98
35888;BME280;21990;42.540;23.496;2023-02-26T03:04:11;92248.00;;;7.09;73.40
35888;BME280;21990;42.540;23.496;2023-02-26T03:06:40;92252.19;;;7.16;72.52
35888;BME280;21990;42.540;23.496;2023-02-26T03:09:07;92247.31;;;7.30;72.24
35888;BME280;21990;42.540;23.496;2023-02-26T03:11:33;92246.78;;;7.31;71.88
35888;BME280;21990;42.540;23.496;2023-02-26T03:13:59;92239.84;;;7.32;71.58
35888;BME280;21990;42.540;23.496;2023-02-26T03:22:52;92241.84;;;7.45;70.94
35888;BME280;21990;42.540;23.496;2023-02-26T03:36:13;92235.16;;;7.27;70.84
35888;BME280;21990;42.540;23.496;2023-02-26T03:39:13;92237.53;;;7.23;70.93
35888;BME280;21990;42.540;23.496;2023-02-26T03:41:59;92233.63;;;7.26;70.91
35888;BME280;21990;42.540;23.496;2023-02-26T03:44:34;92240.88;;;7.22;70.90
35888;BME280;21990;42.540;23.496;2023-02-26T03:47:05;92226.25;;;7.15;71.18
35888;BME280;21990;42.540;23.496;2023-02-26T03:49:37;92230.34;;;7.01;71.37
35888;BME280;21990;42.540;23.496;2023-02-26T03:52:06;92234.88;;;7.04;70.99
35888;BME280;21990;42.540;23.496;2023-02-26T03:54:36;92236.94;;;7.04;71.04
35888;BME280;21990;42.540;23.496;2023-02-26T03:57:03;92246.06;;;7.04;71.14
35888;BME280;21990;42.540;23.496;2023-02-26T03:59:29;92246.50;;;7.08;71.31
35888;BME280;21990;42.540;23.496;2023-02-26T04:05:02;92224.75;;;7.01;71.20
35888;BME280;21990;42.540;23.496;2023-02-26T04:07:31;92229.75;;;6.95;70.64
35888;BME280;21990;42.540;23.496;2023-02-26T04:09:56;92242.22;;;6.94;71.29
35888;BME280;21990;42.540;23.496;2023-02-26T04:12:24;92237.91;;;6.93;71.21
35888;BME280;21990;42.540;23.496;2023-02-26T04:14:50;92231.44;;;6.98;71.25
35888;BME280;21990;42.540;23.496;2023-02-26T04:17:16;92232.06;;;7.04;71.18
35888;BME280;21990;42.540;23.496;2023-02-26T04:19:42;92239.09;;;6.98;71.49
35888;BME280;21990;42.540;23.496;2023-02-26T04:22:07;92241.56;;;7.01;71.00
35888;BME280;21990;42.540;23.496;2023-02-26T04:24:33;92219.06;;;6.94;71.09
35888;BME280;21990;42.540;23.496;2023-02-26T04:26:58;92217.19;;;6.76;71.56
35888;BME280;21990;42.540;23.496;2023-02-26T04:29:24;92209.22;;;6.80;71.24
35888;BME280;21990;42.540;23.496;2023-02-26T04:31:49;92207.16;;;6.80;71.66
35888;BME280;21990;42.540;23.496;2023-02-26T04:34:15;92201.34;;;6.78;71.07
35888;BME280;21990;42.540;23.496;2023-02-26T04:36:40;92192.19;;;6.78;71.44
35888;BME280;21990;42.540;23.496;2023-02-26T04:39:07;92184.97;;;6.82;70.76
35888;BME280;21990;42.540;23.496;2023-02-26T04:41:35;92188.75;;;6.85;68.29
35888;BME280;21990;42.540;23.496;2023-02-26T04:44:01;92190.97;;;6.99;68.88
35888;BME280;21990;42.540;23.496;2023-02-26T04:46:26;92205.16;;;7.01;69.84
35888;BME280;21990;42.540;23.496;2023-02-26T04:48:52;92199.88;;;6.98;69.62
35888;BME280;21990;42.540;23.496;2023-02-26T04:51:17;92201.75;;;6.95;70.33
35888;BME280;21990;42.540;23.496;2023-02-26T04:53:43;92197.84;;;6.98;68.69
35888;BME280;21990;42.540;23.496;2023-02-26T04:56:09;92179.66;;;7.26;63.12
35888;BME280;21990;42.540;23.496;2023-02-26T04:58:35;92188.63;;;7.66;63.32
35888;BME280;21990;42.540;23.496;2023-02-26T05:01:00;92171.81;;;7.94;61.26
35888;BME280;21990;42.540;23.496;2023-02-26T05:03:26;92178.97;;;8.51;57.18
35888;BME280;21990;42.540;23.496;2023-02-26T05:05:51;92177.63;;;8.81;57.74
35888;BME280;21990;42.540;23.496;2023-02-26T05:08:17;92184.59;;;8.95;55.47
35888;BME280;21990;42.540;23.496;2023-02-26T05:10:42;92174.53;;;9.07;55.32
35888;BME280;21990;42.540;23.496;2023-02-26T05:13:08;92180.41;;;9.24;53.68
35888;BME280;21990;42.540;23.496;2023-02-26T05:15:33;92176.72;;;9.60;52.34
35888;BME280;21990;42.540;23.496;2023-02-26T05:17:59;92178.03;;;9.81;50.30
35888;BME280;21990;42.540;23.496;2023-02-26T05:20:24;92170.19;;;10.18;49.35
35888;BME280;21990;42.540;23.496;2023-02-26T05:22:50;92180.28;;;10.43;49.14
35888;BME280;21990;42.540;23.496;2023-02-26T05:25:15;92188.34;;;10.47;50.59
35888;BME280;21990;42.540;23.496;2023-02-26T05:27:41;92178.72;;;10.80;47.58
35888;BME280;21990;42.540;23.496;2023-02-26T05:30:09;92183.41;;;10.78;49.21
35888;BME280;21990;42.540;23.496;2023-02-26T05:32:36;92167.28;;;10.71;48.03
35888;BME280;21990;42.540;23.496;2023-02-26T05:35:02;92167.84;;;10.77;48.22
35888;BME280;21990;42.540;23.496;2023-02-26T05:37:28;92166.34;;;10.76;49.39
35888;BME280;21990;42.540;23.496;2023-02-26T05:39:53;92168.59;;;11.17;46.15
35888;BME280;21990;42.540;23.496;2023-02-26T05:42:19;92163.09;;;11.34;46.83
35888;BME280;21990;42.540;23.496;2023-02-26T05:44:44;92154.88;;;11.54;44.98
35888;BME280;21990;42.540;23.496;2023-02-26T05:47:10;92176.22;;;11.72;45.52
35888;BME280;21990;42.540;23.496;2023-02-26T05:49:35;92174.88;;;11.80;45.17
35888;BME280;21990;42.540;23.496;2023-02-26T05:52:01;92155.19;;;11.98;45.00
35888;BME280;21990;42.540;23.496;2023-02-26T05:54:27;92169.63;;;12.26;43.68
35888;BME280;21990;42.540;23.496;2023-02-26T05:56:52;92160.69;;;12.55;42.73
35888;BME280;21990;42.540;23.496;2023-02-26T05:59:19;92186.44;;;12.83;41.69
35888;BME280;21990;42.540;23.496;2023-02-26T06:01:44;92171.13;;;12.87;42.23
35888;BME280;21990;42.540;23.496;2023-02-26T06:04:10;92164.72;;;13.03;41.81
35888;BME280;21990;42.540;23.496;2023-02-26T06:06:35;92162.94;;;13.08;41.32
35888;BME280;21990;42.540;23.496;2023-02-26T06:09:01;92177.03;;;13.15;40.45
35888;BME280;21990;42.540;23.496;2023-02-26T06:11:28;92175.28;;;13.20;40.21
35888;BME280;21990;42.540;23.496;2023-02-26T06:13:54;92172.97;;;13.26;40.12
35888;BME280;21990;42.540;23.496;2023-02-26T06:16:20;92170.38;;;13.38;40.28
35888;BME280;21990;42.540;23.496;2023-02-26T06:18:46;92175.75;;;13.43;39.58
35888;BME280;21990;42.540;23.496;2023-02-26T06:21:12;92183.66;;;13.45;40.28
35888;BME280;21990;42.540;23.496;2023-02-26T06:23:38;92199.97;;;13.54;40.02
35888;BME280;21990;42.540;23.496;2023-02-26T06:26:04;92177.88;;;13.69;39.34
35888;BME280;21990;42.540;23.496;2023-02-26T06:28:30;92170.50;;;13.84;39.91
35888;BME280;21990;42.540;23.496;2023-02-26T06:30:55;92192.34;;;14.00;39.20
35888;BME280;21990;42.540;23.496;2023-02-26T06:33:21;92174.81;;;14.11;39.56
35888;BME280;21990;42.540;23.496;2023-02-26T06:35:47;92178.59;;;14.33;38.60
35888;BME280;21990;42.540;23.496;2023-02-26T06:38:13;92187.56;;;14.66;39.87
35888;BME280;21990;42.540;23.496;2023-02-26T06:40:38;92218.50;;;15.00;41.27
35888;BME280;21990;42.540;23.496;2023-02-26T06:43:04;92194.94;;;15.07;38.00
35888;BME280;21990;42.540;23.496;2023-02-26T06:45:30;92186.13;;;15.03;36.95
35888;BME280;21990;42.540;23.496;2023-02-26T06:47:55;92203.56;;;15.00;37.79
35888;BME280;21990;42.540;23.496;2023-02-26T06:50:21;92197.47;;;14.94;36.53
35888;BME280;21990;42.540;23.496;2023-02-26T06:52:46;92195.97;;;15.02;36.39
35888;BME280;21990;42.540;23.496;2023-02-26T06:55:12;92188.50;;;14.97;35.81
35888;BME280;21990;42.540;23.496;2023-02-26T06:57:38;92194.94;;;15.07;36.71
35888;BME280;21990;42.540;23.496;2023-02-26T07:00:05;92194.06;;;15.24;38.81
35888;BME280;21990;42.540;23.496;2023-02-26T07:02:31;92214.81;;;15.36;37.10
35888;BME280;21990;42.540;23.496;2023-02-26T07:04:56;92191.06;;;15.41;35.86
35888;BME280;21990;42.540;23.496;2023-02-26T07:07:22;92192.56;;;15.61;36.16
35888;BME280;21990;42.540;23.496;2023-02-26T07:09:47;92190.19;;;15.68;35.68
35888;BME280;21990;42.540;23.496;2023-02-26T07:12:13;92192.72;;;15.63;34.23
35888;BME280;21990;42.540;23.496;2023-02-26T07:14:39;92168.47;;;15.82;33.47
35888;BME280;21990;42.540;23.496;2023-02-26T07:17:07;92174.41;;;16.05;35.71
35888;BME280;21990;42.540;23.496;2023-02-26T07:19:33;92180.22;;;16.07;34.35
35888;BME280;21990;42.540;23.496;2023-02-26T07:21:59;92155.84;;;16.04;32.59
35888;BME280;21990;42.540;23.496;2023-02-26T07:24:24;92166.16;;;16.09;31.90
35888;BME280;21990;42.540;23.496;2023-02-26T07:26:50;92146.28;;;16.09;32.21
35888;BME280;21990;42.540;23.496;2023-02-26T07:29:16;92182.97;;;16.36;32.90
35888;BME280;21990;42.540;23.496;2023-02-26T07:31:41;92156.34;;;16.31;31.50
35888;BME280;21990;42.540;23.496;2023-02-26T07:34:07;92168.72;;;16.45;31.76
35888;BME280;21990;42.540;23.496;2023-02-26T07:36:32;92166.88;;;16.59;31.87
35888;BME280;21990;42.540;23.496;2023-02-26T07:38:58;92153.69;;;16.64;30.46
35888;BME280;21990;42.540;23.496;2023-02-26T07:41:23;92152.28;;;16.75;30.57
35888;BME280;21990;42.540;23.496;2023-02-26T07:43:49;92158.81;;;16.87;31.10
35888;BME280;21990;42.540;23.496;2023-02-26T07:46:15;92152.44;;;16.98;30.78
35888;BME280;21990;42.540;23.496;2023-02-26T07:48:40;92161.09;;;17.21;30.42
35888;BME280;21990;42.540;23.496;2023-02-26T07:51:06;92186.41;;;17.27;30.04
35888;BME280;21990;42.540;23.496;2023-02-26T07:53:33;92113.19;;;17.18;30.20
35888;BME280;21990;42.540;23.496;2023-02-26T07:55:59;92123.81;;;17.38;31.97
35888;BME280;21990;42.540;23.496;2023-02-26T07:58:24;92143.19;;;17.73;31.33
35888;BME280;21990;42.540;23.496;2023-02-26T08:00:50;92145.41;;;17.86;30.85
35888;BME280;21990;42.540;23.496;2023-02-26T08:03:18;92167.38;;;17.95;30.25
35888;BME280;21990;42.540;23.496;2023-02-26T08:05:43;92128.25;;;18.07;28.73
35888;BME280;21990;42.540;23.496;2023-02-26T08:08:09;92142.13;;;18.01;30.41
35888;BME280;21990;42.540;23.496;2023-02-26T08:10:35;92153.91;;;18.07;30.66
35888;BME280;21990;42.540;23.496;2023-02-26T08:13:01;92132.22;;;18.14;30.13
35888;BME280;21990;42.540;23.496;2023-02-26T08:15:26;92156.25;;;17.99;28.11
35888;BME280;21990;42.540;23.496;2023-02-26T08:17:52;92190.72;;;18.03;27.77
35888;BME280;21990;42.540;23.496;2023-02-26T08:20:18;92170.38;;;17.97;30.26
35888;BME280;21990;42.540;23.496;2023-02-26T08:22:44;92161.84;;;17.97;30.64
35888;BME280;21990;42.540;23.496;2023-02-26T08:25:10;92174.63;;;18.08;28.27
35888;BME280;21990;42.540;23.496;2023-02-26T08:27:37;92160.75;;;18.14;27.82
35888;BME280;21990;42.540;23.496;2023-02-26T08:30:04;92175.00;;;18.14;27.84
35888;BME280;21990;42.540;23.496;2023-02-26T08:32:33;92168.78;;;18.17;28.16
35888;BME280;21990;42.540;23.496;2023-02-26T08:34:58;92166.22;;;18.33;29.89
35888;BME280;21990;42.540;23.496;2023-02-26T08:37:24;92179.28;;;18.47;28.77
35888;BME280;21990;42.540;23.496;2023-02-26T08:39:51;92185.72;;;18.48;28.22
35888;BME280;21990;42.540;23.496;2023-02-26T08:42:17;92163.75;;;18.27;27.77
35888;BME280;21990;42.540;23.496;2023-02-26T08:44:45;92187.88;;;18.15;28.83
35888;BME280;21990;42.540;23.496;2023-02-26T08:47:12;92175.75;;;18.14;29.78
35888;BME280;21990;42.540;23.496;2023-02-26T08:49:37;92147.13;;;18.12;31.08
35888;BME280;21990;42.540;23.496;2023-02-26T08:52:03;92180.94;;;18.18;29.95
35888;BME280;21990;42.540;23.496;2023-02-26T08:54:28;92199.66;;;18.09;27.83
35888;BME280;21990;42.540;23.496;2023-02-26T08:56:54;92176.38;;;18.13;28.85
35888;BME280;21990;42.540;23.496;2023-02-26T08:59:22;92175.75;;;18.14;29.19
35888;BME280;21990;42.540;23.496;2023-02-26T09:01:48;92170.94;;;18.17;29.20
35888;BME280;21990;42.540;23.496;2023-02-26T09:04:14;92187.56;;;18.32;27.54
35888;BME280;21990;42.540;23.496;2023-02-26T09:06:39;92157.44;;;18.40;28.75
35888;BME280;21990;42.540;23.496;2023-02-26T09:09:05;92168.22;;;18.42;26.97
35888;BME280;21990;42.540;23.496;2023-02-26T09:11:30;92183.38;;;18.56;27.57
35888;BME280;21990;42.540;23.496;2023-02-26T09:13:56;92179.06;;;18.78;29.75
35888;BME280;21990;42.540;23.496;2023-02-26T09:16:28;92161.31;;;18.80;27.23
35888;BME280;21990;42.540;23.496;2023-02-26T09:18:54;92198.66;;;18.95;28.09
35888;BME280;21990;42.540;23.496;2023-02-26T09:21:20;92171.13;;;18.88;26.66
35888;BME280;21990;42.540;23.496;2023-02-26T09:23:46;92164.53;;;18.98;28.19
35888;BME280;21990;42.540;23.496;2023-02-26T09:26:15;92165.38;;;19.12;27.64
35888;BME280;21990;42.540;23.496;2023-02-26T09:28:44;92179.88;;;19.27;28.72
35888;BME280;21990;42.540;23.496;2023-02-26T09:31:10;92163.97;;;19.36;27.22
35888;BME280;21990;42.540;23.496;2023-02-26T09:33:35;92155.41;;;19.48;26.85
35888;BME280;21990;42.540;23.496;2023-02-26T09:36:01;92164.97;;;19.40;25.71
35888;BME280;21990;42.540;23.496;2023-02-26T09:38:26;92153.25;;;19.60;27.50
35888;BME280;21990;42.540;23.496;2023-02-26T09:40:59;92151.69;;;19.45;26.06
35888;BME280;21990;42.540;23.496;2023-02-26T09:48:44;92192.88;;;19.54;26.12
35888;BME280;21990;42.540;23.496;2023-02-26T09:51:16;92181.56;;;19.67;25.84
35888;BME280;21990;42.540;23.496;2023-02-26T09:53:43;92188.44;;;19.87;29.44
35888;BME280;21990;42.540;23.496;2023-02-26T09:56:21;92173.63;;;19.91;25.19
35888;BME280;21990;42.540;23.496;2023-02-26T09:58:49;92173.59;;;20.03;27.27
35888;BME280;21990;42.540;23.496;2023-02-26T10:01:37;92175.34;;;20.21;27.53
35888;BME280;21990;42.540;23.496;2023-02-26T10:04:23;92192.50;;;20.21;24.96
35888;BME280;21990;42.540;23.496;2023-02-26T10:07:14;92189.75;;;20.23;26.32
35888;BME280;21990;42.540;23.496;2023-02-26T10:12:16;92185.41;;;20.22;24.96
35888;BME280;21990;42.540;23.496;2023-02-26T10:20:03;92194.84;;;19.63;24.32
35888;BME280;21990;42.540;23.496;2023-02-26T10:30:57;92145.66;;;19.89;25.85
35888;BME280;21990;42.540;23.496;2023-02-26T10:36:23;92128.63;;;19.66;26.72
35888;BME280;21990;42.540;23.496;2023-02-26T10:39:02;92107.06;;;19.77;27.08
35888;BME280;21990;42.540;23.496;2023-02-26T10:41:32;92115.53;;;19.75;26.49
35888;BME280;21990;42.540;23.496;2023-02-26T10:44:03;92107.94;;;19.79;27.65
35888;BME280;21990;42.540;23.496;2023-02-26T10:49:40;92089.41;;;19.80;25.77
35888;BME280;21990;42.540;23.496;2023-02-26T10:52:14;92086.16;;;19.86;25.86
35888;BME280;21990;42.540;23.496;2023-02-26T10:57:32;92109.88;;;19.88;26.45
35888;BME280;21990;42.540;23.496;2023-02-26T11:00:04;92087.50;;;19.71;26.34
35888;BME280;21990;42.540;23.496;2023-02-26T11:02:42;92087.81;;;19.77;25.11
35888;BME280;21990;42.540;23.496;2023-02-26T11:05:30;92085.59;;;19.76;26.41
35888;BME280;21990;42.540;23.496;2023-02-26T11:07:59;92099.81;;;19.62;24.67
35888;BME280;21990;42.540;23.496;2023-02-26T11:13:14;92112.75;;;19.63;26.02
35888;BME280;21990;42.540;23.496;2023-02-26T11:15:40;92108.84;;;19.70;24.77
35888;BME280;21990;42.540;23.496;2023-02-26T11:18:12;92101.19;;;19.61;25.99
35888;BME280;21990;42.540;23.496;2023-02-26T11:20:43;92123.81;;;19.57;27.04
35888;BME280;21990;42.540;23.496;2023-02-26T11:23:12;92122.22;;;19.54;26.43
35888;BME280;21990;42.540;23.496;2023-02-26T11:25:39;92109.31;;;19.41;26.79
35888;BME280;21990;42.540;23.496;2023-02-26T11:28:31;92109.78;;;19.13;26.71
35888;BME280;21990;42.540;23.496;2023-02-26T11:31:00;92105.34;;;18.98;26.82
35888;BME280;21990;42.540;23.496;2023-02-26T11:33:36;92100.78;;;18.81;26.53
35888;BME280;21990;42.540;23.496;2023-02-26T11:36:07;92109.00;;;18.75;27.59
35888;BME280;21990;42.540;23.496;2023-02-26T11:38:33;92106.00;;;18.73;27.97
35888;BME280;21990;42.540;23.496;2023-02-26T11:41:00;92109.44;;;18.83;28.56
35888;BME280;21990;42.540;23.496;2023-02-26T11:43:40;92121.50;;;18.70;27.09
35888;BME280;21990;42.540;23.496;2023-02-26T11:46:06;92098.81;;;18.61;27.00
35888;BME280;21990;42.540;23.496;2023-02-26T11:48:45;92106.88;;;18.64;27.83
35888;BME280;21990;42.540;23.496;2023-02-26T11:51:15;92117.78;;;18.68;28.95
35888;BME280;21990;42.540;23.496;2023-02-26T11:53:54;92129.81;;;18.66;28.07
35888;BME280;21990;42.540;23.496;2023-02-26T11:58:51;92138.63;;;18.82;30.13
35888;BME280;21990;42.540;23.496;2023-02-26T12:01:17;92138.72;;;18.95;29.71
35888;BME280;21990;42.540;23.496;2023-02-26T12:03:44;92131.31;;;18.90;29.29
35888;BME280;21990;42.540;23.496;2023-02-26T12:06:18;92145.81;;;18.83;30.03
35888;BME280;21990;42.540;23.496;2023-02-26T12:08:45;92143.69;;;18.83;29.51
35888;BME280;21990;42.540;23.496;2023-02-26T12:14:07;92162.44;;;18.63;29.29
35888;BME280;21990;42.540;23.496;2023-02-26T12:20:19;92178.31;;;18.66;31.00
35888;BME280;21990;42.540;23.496;2023-02-26T12:23:19;92189.34;;;18.60;31.31
35888;BME280;21990;42.540;23.496;2023-02-26T12:28:49;92191.25;;;18.23;32.04
35888;BME280;21990;42.540;23.496;2023-02-26T12:34:18;92204.09;;;18.00;34.37
35888;BME280;21990;42.540;23.496;2023-02-26T12:37:43;92198.63;;;17.93;34.25
35888;BME280;21990;42.540;23.496;2023-02-26T12:43:02;92215.88;;;18.07;36.54
35888;BME280;21990;42.540;23.496;2023-02-26T12:45:53;92241.78;;;18.11;37.37
35888;BME280;21990;42.540;23.496;2023-02-26T12:52:04;92226.81;;;17.77;38.35
35888;BME280;21990;42.540;23.496;2023-02-26T12:54:47;92216.41;;;17.82;37.23
35888;BME280;21990;42.540;23.496;2023-02-26T13:19:44;92228.56;;;18.27;38.97
35888;BME280;21990;42.540;23.496;2023-02-26T13:22:33;92227.97;;;18.28;39.98
35888;BME280;21990;42.540;23.496;2023-02-26T13:27:53;92220.50;;;18.23;39.27
35888;BME280;21990;42.540;23.496;2023-02-26T13:30:32;92223.41;;;18.35;39.71
35888;BME280;21990;42.540;23.496;2023-02-26T13:33:00;92219.03;;;18.34;38.84
35888;BME280;21990;42.540;23.496;2023-02-26T13:35:33;92216.69;;;18.30;39.47
35888;BME280;21990;42.540;23.496;2023-02-26T13:38:40;92206.66;;;18.41;39.33
35888;BME280;21990;42.540;23.496;2023-02-26T13:42:00;92216.09;;;18.43;38.57
35888;BME280;21990;42.540;23.496;2023-02-26T13:49:29;92201.94;;;18.34;36.45
35888;BME280;21990;42.540;23.496;2023-02-26T13:51:58;92203.41;;;18.23;35.73
35888;BME280;21990;42.540;23.496;2023-02-26T13:54:42;92208.84;;;18.19;35.36
35888;BME280;21990;42.540;23.496;2023-02-26T13:59:53;92198.16;;;18.08;35.33
35888;BME280;21990;42.540;23.496;2023-02-26T14:04:50;92198.44;;;18.12;35.11
35888;BME280;21990;42.540;23.496;2023-02-26T14:07:16;92206.94;;;18.00;34.84
35888;BME280;21990;42.540;23.496;2023-02-26T14:10:22;92207.50;;;17.87;34.71
35888;BME280;21990;42.540;23.496;2023-02-26T14:13:22;92211.06;;;17.76;33.99
35888;BME280;21990;42.540;23.496;2023-02-26T14:16:09;92210.25;;;17.64;34.22
35888;BME280;21990;42.540;23.496;2023-02-26T14:18:42;92200.00;;;17.71;34.20
35888;BME280;21990;42.540;23.496;2023-02-26T14:24:00;92225.16;;;17.74;35.67
35888;BME280;21990;42.540;23.496;2023-02-26T14:26:32;92216.16;;;17.78;33.97
35888;BME280;21990;42.540;23.496;2023-02-26T14:32:21;92225.31;;;17.76;33.97
35888;BME280;21990;42.540;23.496;2023-02-26T14:34:54;92241.22;;;17.48;34.85
35888;BME280;21990;42.540;23.496;2023-02-26T14:37:24;92248.06;;;17.55;34.38
35888;BME280;21990;42.540;23.496;2023-02-26T14:42:22;92241.09;;;17.68;35.83
35888;BME280;21990;42.540;23.496;2023-02-26T14:45:05;92255.22;;;17.66;36.20
35888;BME280;21990;42.540;23.496;2023-02-26T14:47:40;92265.28;;;17.36;36.30
35888;BME280;21990;42.540;23.496;2023-02-26T14:50:15;92262.50;;;17.47;36.65
35888;BME280;21990;42.540;23.496;2023-02-26T15:01:17;92260.06;;;17.32;38.07
35888;BME280;21990;42.540;23.496;2023-02-26T15:09:24;92255.13;;;17.12;39.47
35888;BME280;21990;42.540;23.496;2023-02-26T15:25:34;92288.34;;;16.78;40.39
35888;BME280;21990;42.540;23.496;2023-02-26T15:28:02;92296.75;;;16.76;40.68
35888;BME280;21990;42.540;23.496;2023-02-26T15:30:30;92301.56;;;16.64;39.97
35888;BME280;21990;42.540;23.496;2023-02-26T15:32:59;92311.03;;;16.57;40.18
35888;BME280;21990;42.540;23.496;2023-02-26T15:35:27;92317.16;;;16.53;41.62
35888;BME280;21990;42.540;23.496;2023-02-26T15:37:55;92320.44;;;16.50;42.36
35888;BME280;21990;42.540;23.496;2023-02-26T15:40:23;92327.31;;;16.47;41.59
35888;BME280;21990;42.540;23.496;2023-02-26T15:42:52;92325.81;;;16.46;41.98
35888;BME280;21990;42.540;23.496;2023-02-26T15:45:40;92321.34;;;16.43;42.27
35888;BME280;21990;42.540;23.496;2023-02-26T15:48:11;92318.69;;;16.26;42.66
35888;BME280;21990;42.540;23.496;2023-02-26T15:50:41;92330.22;;;16.18;42.80
35888;BME280;21990;42.540;23.496;2023-02-26T15:53:12;92328.72;;;15.88;41.75
35888;BME280;21990;42.540;23.496;2023-02-26T15:55:46;92314.97;;;15.75;43.57
35888;BME280;21990;42.540;23.496;2023-02-26T15:58:26;92323.66;;;15.68;43.58
35888;BME280;21990;42.540;23.496;2023-02-26T16:00:54;92326.72;;;15.43;44.03
35888;BME280;21990;42.540;23.496;2023-02-26T16:03:34;92334.38;;;15.50;44.76